sensor_id;sensor_type;location;lat;lon;timestamp;pressure;altitude;pressure_sealevel;temperature;humidity
11124;BME280;5616;42.692;23.312;2023-08-30T00:01:31;94211.13;;;22.45;76.35
11124;BME280;5616;42.692;23.312;2023-08-30T00:03:58;94215.59;;;22.44;77.73
11124;BME280;5616;42.692;23.312;2023-08-30T00:06:24;94216.13;;;22.46;79.28
11124;BME280;5616;42.692;23.312;2023-08-30T00:08:53;94199.66;;;22.36;74.88
11124;BME280;5616;42.692;23.312;2023-08-30T00:11:19;94214.84;;;22.44;73.40
11124;BME280;5616;42.692;23.312;2023-08-30T00:13:46;94215.56;;;22.49;76.49
11124;BME280;5616;42.692;23.312;2023-08-30T00:16:13;94232.47;;;22.43;71.79
11124;BME280;5616;42.692;23.312;2023-08-30T00:18:42;94235.34;;;22.42;71.71
11124;BME280;5616;42.692;23.312;2023-08-30T00:21:10;94231.19;;;22.41;74.67
11124;BME280;5616;42.692;23.312;2023-08-30T00:23:36;94217.72;;;22.42;73.03
11124;BME280;5616;42.692;23.312;2023-08-30T00:26:04;94221.75;;;22.35;73.21
11124;BME280;5616;42.692;23.312;2023-08-30T00:28:31;94215.16;;;22.37;71.51
11124;BME280;5616;42.692;23.312;2023-08-30T00:31:00;94213.56;;;22.36;70.59
11124;BME280;5616;42.692;23.312;2023-08-30T00:33:27;94202.03;;;22.32;70.13
11124;BME280;5616;42.692;23.312;2023-08-30T00:35:57;94194.94;;;22.33;71.18
11124;BME280;5616;42.692;23.312;2023-08-30T00:38:26;94207.28;;;22.32;71.19
11124;BME280;5616;42.692;23.312;2023-08-30T00:40:53;94200.28;;;22.23;72.48
11124;BME280;5616;42.692;23.312;2023-08-30T00:43:22;94203.97;;;22.17;73.65
11124;BME280;5616;42.692;23.312;2023-08-30T00:45:49;94198.50;;;22.08;72.71
11124;BME280;5616;42.692;23.312;2023-08-30T00:48:15;94208.56;;;22.01;74.34
11124;BME280;5616;42.692;23.312;2023-08-30T00:50:44;94214.91;;;21.95;73.36
11124;BME280;5616;42.692;23.312;2023-08-30T00:53:11;94219.38;;;21.89;71.03
11124;BME280;5616;42.692;23.312;2023-08-30T00:55:39;94225.16;;;21.91;74.29
11124;BME280;5616;42.692;23.312;2023-08-30T00:58:07;94227.03;;;21.91;73.41
11124;BME280;5616;42.692;23.312;2023-08-30T01:00:35;94232.78;;;21.93;71.87
11124;BME280;5616;42.692;23.312;2023-08-30T01:03:05;94226.97;;;22.01;72.55
11124;BME280;5616;42.692;23.312;2023-08-30T01:05:32;94220.91;;;22.01;70.47
11124;BME280;5616;42.692;23.312;2023-08-30T01:07:59;94188.91;;;21.88;70.17
11124;BME280;5616;42.692;23.312;2023-08-30T01:10:36;94233.50;;;22.04;69.83
11124;BME280;5616;42.692;23.312;2023-08-30T01:13:09;94237.19;;;22.03;70.55
11124;BME280;5616;42.692;23.312;2023-08-30T01:15:38;94243.56;;;21.97;71.51
11124;BME280;5616;42.692;23.312;2023-08-30T01:18:06;94252.50;;;21.96;69.54
11124;BME280;5616;42.692;23.312;2023-08-30T01:20:37;94253.78;;;21.98;69.70
11124;BME280;5616;42.692;23.312;2023-08-30T01:23:07;94261.13;;;22.01;69.14
11124;BME280;5616;42.692;23.312;2023-08-30T01:25:45;94255.56;;;22.08;69.28
11124;BME280;5616;42.692;23.312;2023-08-30T01:28:16;94250.84;;;22.10;68.78
11124;BME280;5616;42.692;23.312;2023-08-30T01:30:46;94254.50;;;22.14;68.42
11124;BME280;5616;42.692;23.312;2023-08-30T01:33:14;94229.81;;;22.05;68.25
11124;BME280;5616;42.692;23.312;2023-08-30T01:35:42;94242.38;;;22.13;70.57
11124;BME280;5616;42.692;23.312;2023-08-30T01:38:09;94245.00;;;22.13;69.18
11124;BME280;5616;42.692;23.312;2023-08-30T01:40:37;94239.75;;;22.13;68.41
11124;BME280;5616;42.692;23.312;2023-08-30T01:43:07;94250.28;;;22.13;69.98
11124;BME280;5616;42.692;23.312;2023-08-30T01:45:40;94248.22;;;22.10;69.37
11124;BME280;5616;42.692;23.312;2023-08-30T01:48:09;94242.97;;;22.10;70.04
11124;BME280;5616;42.692;23.312;2023-08-30T01:50:38;94231.94;;;22.03;70.63
11124;BME280;5616;42.692;23.312;2023-08-30T01:53:05;94230.41;;;21.97;70.31
11124;BME280;5616;42.692;23.312;2023-08-30T01:55:35;94240.94;;;21.91;70.54
11124;BME280;5616;42.692;23.312;2023-08-30T01:58:03;94235.66;;;21.91;71.60
11124;BME280;5616;42.692;23.312;2023-08-30T02:00:30;94239.59;;;21.99;70.89
11124;BME280;5616;42.692;23.312;2023-08-30T02:02:59;94240.63;;;22.03;70.07
11124;BME280;5616;42.692;23.312;2023-08-30T02:05:26;94245.59;;;22.05;70.33
11124;BME280;5616;42.692;23.312;2023-08-30T02:07:58;94240.59;;;22.08;70.09
11124;BME280;5616;42.692;23.312;2023-08-30T02:10:34;94236.16;;;22.04;70.43
11124;BME280;5616;42.692;23.312;2023-08-30T02:13:03;94236.66;;;22.06;70.92
11124;BME280;5616;42.692;23.312;2023-08-30T02:15:32;94239.31;;;22.01;71.14
11124;BME280;5616;42.692;23.312;2023-08-30T02:18:01;94242.44;;;22.03;70.77
11124;BME280;5616;42.692;23.312;2023-08-30T02:20:30;94242.47;;;21.98;70.48
11124;BME280;5616;42.692;23.312;2023-08-30T02:22:58;94247.78;;;21.92;70.61
11124;BME280;5616;42.692;23.312;2023-08-30T02:25:25;94229.34;;;21.98;70.47
11124;BME280;5616;42.692;23.312;2023-08-30T02:27:53;94237.50;;;21.96;71.07
11124;BME280;5616;42.692;23.312;2023-08-30T02:30:20;94230.97;;;21.88;71.85
11124;BME280;5616;42.692;23.312;2023-08-30T02:32:47;94229.41;;;21.77;72.81
11124;BME280;5616;42.692;23.312;2023-08-30T02:35:17;94230.47;;;21.76;72.68
11124;BME280;5616;42.692;23.312;2023-08-30T02:37:44;94231.81;;;21.69;73.51
11124;BME280;5616;42.692;23.312;2023-08-30T02:40:11;94227.88;;;21.66;73.49
11124;BME280;5616;42.692;23.312;2023-08-30T02:42:38;94231.88;;;21.59;73.63
11124;BME280;5616;42.692;23.312;2023-08-30T02:45:06;94226.88;;;21.57;72.98
11124;BME280;5616;42.692;23.312;2023-08-30T02:47:33;94198.84;;;21.38;72.89
11124;BME280;5616;42.692;23.312;2023-08-30T02:49:59;94222.94;;;21.55;72.10
11124;BME280;5616;42.692;23.312;2023-08-30T02:52:28;94215.34;;;21.53;72.57
11124;BME280;5616;42.692;23.312;2023-08-30T02:54:54;94221.16;;;21.45;72.86
11124;BME280;5616;42.692;23.312;2023-08-30T02:57:21;94209.59;;;21.46;71.77
11124;BME280;5616;42.692;23.312;2023-08-30T02:59:49;94213.78;;;21.47;72.23
11124;BME280;5616;42.692;23.312;2023-08-30T03:02:17;94213.25;;;21.50;72.37
11124;BME280;5616;42.692;23.312;2023-08-30T03:04:44;94216.94;;;21.49;72.67
11124;BME280;5616;42.692;23.312;2023-08-30T03:07:11;94218.00;;;21.43;72.26
11124;BME280;5616;42.692;23.312;2023-08-30T03:09:39;94224.06;;;21.44;73.09
11124;BME280;5616;42.692;23.312;2023-08-30T03:12:07;94222.75;;;21.31;72.59
11124;BME280;5616;42.692;23.312;2023-08-30T03:14:35;94223.31;;;21.28;73.27
11124;BME280;5616;42.692;23.312;2023-08-30T03:17:01;94225.94;;;21.28;72.89
11124;BME280;5616;42.692;23.312;2023-08-30T03:19:28;94231.72;;;21.25;72.37
11124;BME280;5616;42.692;23.312;2023-08-30T03:21:55;94235.16;;;21.25;71.76
11124;BME280;5616;42.692;23.312;2023-08-30T03:24:22;94223.56;;;21.26;70.39
11124;BME280;5616;42.692;23.312;2023-08-30T03:26:50;94217.00;;;21.24;70.54
11124;BME280;5616;42.692;23.312;2023-08-30T03:29:18;94210.44;;;21.26;69.91
11124;BME280;5616;42.692;23.312;2023-08-30T03:31:47;94216.19;;;21.28;68.89
11124;BME280;5616;42.692;23.312;2023-08-30T03:34:14;94214.38;;;21.24;69.90
11124;BME280;5616;42.692;23.312;2023-08-30T03:36:41;94179.50;;;21.03;69.87
11124;BME280;5616;42.692;23.312;2023-08-30T03:39:09;94212.81;;;21.23;70.47
11124;BME280;5616;42.692;23.312;2023-08-30T03:41:36;94211.78;;;21.19;70.23
11124;BME280;5616;42.692;23.312;2023-08-30T03:44:05;94213.09;;;21.16;69.85
11124;BME280;5616;42.692;23.312;2023-08-30T03:46:32;94173.19;;;20.99;70.38
11124;BME280;5616;42.692;23.312;2023-08-30T03:48:59;94207.03;;;21.21;69.45
11124;BME280;5616;42.692;23.312;2023-08-30T03:51:26;94216.50;;;21.22;70.01
11124;BME280;5616;42.692;23.312;2023-08-30T03:53:52;94216.28;;;21.08;70.13
11124;BME280;5616;42.692;23.312;2023-08-30T03:56:21;94225.97;;;20.98;70.95
11124;BME280;5616;42.692;23.312;2023-08-30T03:58:48;94225.97;;;20.98;70.94
11124;BME280;5616;42.692;23.312;2023-08-30T04:01:17;94236.75;;;21.01;70.26
11124;BME280;5616;42.692;23.312;2023-08-30T04:03:43;94240.13;;;20.97;70.31
11124;BME280;5616;42.692;23.312;2023-08-30T04:06:10;94236.19;;;21.19;73.04
11124;BME280;5616;42.692;23.312;2023-08-30T04:08:37;94231.97;;;21.23;69.54
11124;BME280;5616;42.692;23.312;2023-08-30T04:11:04;94227.78;;;21.27;69.14
11124;BME280;5616;42.692;23.312;2023-08-30T04:13:31;94214.88;;;21.31;68.78
11124;BME280;5616;42.692;23.312;2023-08-30T04:15:57;94226.94;;;21.37;69.13
11124;BME280;5616;42.692;23.312;2023-08-30T04:18:26;94246.31;;;21.56;68.89
11124;BME280;5616;42.692;23.312;2023-08-30T04:20:53;94243.38;;;21.73;68.39
11124;BME280;5616;42.692;23.312;2023-08-30T04:23:20;94239.34;;;21.96;66.63
11124;BME280;5616;42.692;23.312;2023-08-30T04:25:46;94251.53;;;22.25;64.31
11124;BME280;5616;42.692;23.312;2023-08-30T04:28:13;94252.72;;;22.43;64.58
11124;BME280;5616;42.692;23.312;2023-08-30T04:30:41;94260.22;;;22.65;64.66
11124;BME280;5616;42.692;23.312;2023-08-30T04:33:07;94270.91;;;22.78;64.34
11124;BME280;5616;42.692;23.312;2023-08-30T04:35:36;94286.09;;;22.91;63.47
11124;BME280;5616;42.692;23.312;2023-08-30T04:38:03;94290.78;;;22.94;61.65
11124;BME280;5616;42.692;23.312;2023-08-30T04:40:30;94295.78;;;22.96;62.10
11124;BME280;5616;42.692;23.312;2023-08-30T04:42:58;94305.84;;;22.89;61.93
11124;BME280;5616;42.692;23.312;2023-08-30T04:45:25;94303.81;;;22.81;63.14
11124;BME280;5616;42.692;23.312;2023-08-30T04:47:51;94298.28;;;22.77;62.30
11124;BME280;5616;42.692;23.312;2023-08-30T04:50:18;94291.78;;;22.70;60.47
11124;BME280;5616;42.692;23.312;2023-08-30T04:52:47;94306.75;;;22.74;61.89
11124;BME280;5616;42.692;23.312;2023-08-30T04:55:14;94302.31;;;22.70;61.84
11124;BME280;5616;42.692;23.312;2023-08-30T04:57:41;94299.16;;;22.68;60.73
11124;BME280;5616;42.692;23.312;2023-08-30T05:00:13;94288.34;;;22.69;59.95
11124;BME280;5616;42.692;23.312;2023-08-30T05:02:40;94293.09;;;22.67;60.60
11124;BME280;5616;42.692;23.312;2023-08-30T05:05:10;94280.28;;;22.50;60.59
11124;BME280;5616;42.692;23.312;2023-08-30T05:07:37;94297.88;;;22.65;60.11
11124;BME280;5616;42.692;23.312;2023-08-30T05:10:06;94295.75;;;22.67;60.92
11124;BME280;5616;42.692;23.312;2023-08-30T05:12:34;94291.28;;;22.68;59.96
11124;BME280;5616;42.692;23.312;2023-08-30T05:15:01;94289.94;;;22.60;59.88
11124;BME280;5616;42.692;23.312;2023-08-30T05:17:28;94288.44;;;22.54;60.71
11124;BME280;5616;42.692;23.312;2023-08-30T05:19:56;94294.25;;;22.51;60.82
11124;BME280;5616;42.692;23.312;2023-08-30T05:22:22;94288.13;;;22.61;61.03
11124;BME280;5616;42.692;23.312;2023-08-30T05:24:49;94305.72;;;22.70;60.22
11124;BME280;5616;42.692;23.312;2023-08-30T05:27:17;94304.06;;;22.79;59.50
11124;BME280;5616;42.692;23.312;2023-08-30T05:29:44;94295.53;;;22.92;59.42
11124;BME280;5616;42.692;23.312;2023-08-30T05:32:11;94310.47;;;23.02;59.72
11124;BME280;5616;42.692;23.312;2023-08-30T05:35:04;94314.44;;;22.99;58.63
11124;BME280;5616;42.692;23.312;2023-08-30T05:37:54;94308.41;;;22.99;58.81
11124;BME280;5616;42.692;23.312;2023-08-30T05:40:47;94312.63;;;22.95;61.37
11124;BME280;5616;42.692;23.312;2023-08-30T05:43:16;94295.72;;;23.01;59.25
11124;BME280;5616;42.692;23.312;2023-08-30T05:45:43;94292.75;;;23.12;58.79
11124;BME280;5616;42.692;23.312;2023-08-30T05:48:10;94297.97;;;23.18;58.42
11124;BME280;5616;42.692;23.312;2023-08-30T05:50:37;94294.19;;;23.24;58.99
11124;BME280;5616;42.692;23.312;2023-08-30T05:53:04;94298.91;;;23.27;58.99
11124;BME280;5616;42.692;23.312;2023-08-30T05:55:32;94295.16;;;23.38;58.71
11124;BME280;5616;42.692;23.312;2023-08-30T05:57:59;94291.47;;;23.62;58.06
11124;BME280;5616;42.692;23.312;2023-08-30T06:00:27;94291.13;;;23.93;58.33
11124;BME280;5616;42.692;23.312;2023-08-30T06:05:20;94295.03;;;24.19;56.34
11124;BME280;5616;42.692;23.312;2023-08-30T06:07:47;94296.25;;;24.26;54.06
11124;BME280;5616;42.692;23.312;2023-08-30T06:10:14;94293.41;;;24.23;53.90
11124;BME280;5616;42.692;23.312;2023-08-30T06:12:41;94297.59;;;24.24;53.73
11124;BME280;5616;42.692;23.312;2023-08-30T06:15:08;94291.97;;;24.30;53.59
11124;BME280;5616;42.692;23.312;2023-08-30T06:17:36;94286.56;;;24.41;53.39
11124;BME280;5616;42.692;23.312;2023-08-30T06:20:04;94286.97;;;24.48;53.17
11124;BME280;5616;42.692;23.312;2023-08-30T06:22:31;94292.03;;;24.63;52.84
11124;BME280;5616;42.692;23.312;2023-08-30T06:24:58;94297.06;;;24.83;51.60
11124;BME280;5616;42.692;23.312;2023-08-30T06:27:24;94300.88;;;24.90;50.90
11124;BME280;5616;42.692;23.312;2023-08-30T06:29:51;94305.03;;;24.97;51.51
11124;BME280;5616;42.692;23.312;2023-08-30T06:32:18;94303.91;;;25.16;50.78
11124;BME280;5616;42.692;23.312;2023-08-30T06:34:46;94306.59;;;25.43;50.06
11124;BME280;5616;42.692;23.312;2023-08-30T06:37:13;94312.25;;;25.69;49.39
11124;BME280;5616;42.692;23.312;2023-08-30T06:39:40;94306.16;;;25.96;48.21
11124;BME280;5616;42.692;23.312;2023-08-30T06:42:07;94302.53;;;26.05;48.37
11124;BME280;5616;42.692;23.312;2023-08-30T06:44:34;94313.25;;;26.14;47.13
11124;BME280;5616;42.692;23.312;2023-08-30T06:47:01;94310.47;;;26.19;47.18
11124;BME280;5616;42.692;23.312;2023-08-30T06:49:28;94316.78;;;26.23;46.81
11124;BME280;5616;42.692;23.312;2023-08-30T06:51:58;94310.78;;;26.31;46.75
11124;BME280;5616;42.692;23.312;2023-08-30T06:54:27;94294.16;;;26.39;45.44
11124;BME280;5616;42.692;23.312;2023-08-30T06:56:59;94299.28;;;26.36;46.47
11124;BME280;5616;42.692;23.312;2023-08-30T06:59:26;94296.66;;;26.22;48.35
11124;BME280;5616;42.692;23.312;2023-08-30T07:01:53;94303.03;;;26.21;48.28
11124;BME280;5616;42.692;23.312;2023-08-30T07:04:20;94299.94;;;26.55;48.47
11124;BME280;5616;42.692;23.312;2023-08-30T07:06:47;94299.00;;;26.73;47.64
11124;BME280;5616;42.692;23.312;2023-08-30T07:09:15;94303.13;;;26.65;47.89
11124;BME280;5616;42.692;23.312;2023-08-30T07:11:42;94298.19;;;26.72;47.42
11124;BME280;5616;42.692;23.312;2023-08-30T07:14:11;94303.59;;;27.03;46.65
11124;BME280;5616;42.692;23.312;2023-08-30T07:16:38;94299.94;;;27.13;46.79
11124;BME280;5616;42.692;23.312;2023-08-30T07:19:05;94299.41;;;27.33;44.41
11124;BME280;5616;42.692;23.312;2023-08-30T07:21:32;94300.31;;;27.51;43.16
11124;BME280;5616;42.692;23.312;2023-08-30T07:24:02;94298.81;;;27.67;43.63
11124;BME280;5616;42.692;23.312;2023-08-30T07:26:30;94307.63;;;27.84;45.67
11124;BME280;5616;42.692;23.312;2023-08-30T07:28:57;94305.56;;;27.73;46.37
11124;BME280;5616;42.692;23.312;2023-08-30T07:31:24;94313.91;;;27.88;47.04
11124;BME280;5616;42.692;23.312;2023-08-30T07:33:50;94311.28;;;27.97;44.50
11124;BME280;5616;42.692;23.312;2023-08-30T07:36:17;94302.28;;;28.15;43.98
11124;BME280;5616;42.692;23.312;2023-08-30T07:38:44;94302.63;;;28.31;43.58
11124;BME280;5616;42.692;23.312;2023-08-30T07:41:11;94307.56;;;28.63;42.81
11124;BME280;5616;42.692;23.312;2023-08-30T07:43:39;94303.78;;;28.64;41.89
11124;BME280;5616;42.692;23.312;2023-08-30T07:46:06;94302.84;;;28.94;42.09
11124;BME280;5616;42.692;23.312;2023-08-30T07:48:33;94297.19;;;29.22;41.63
11124;BME280;5616;42.692;23.312;2023-08-30T07:51:00;94292.47;;;29.44;40.21
11124;BME280;5616;42.692;23.312;2023-08-30T07:53:27;94288.66;;;29.62;39.86
11124;BME280;5616;42.692;23.312;2023-08-30T07:55:54;94304.41;;;29.76;37.98
11124;BME280;5616;42.692;23.312;2023-08-30T07:58:20;94307.66;;;29.44;38.73
11124;BME280;5616;42.692;23.312;2023-08-30T08:00:50;94298.88;;;29.52;38.40
11124;BME280;5616;42.692;23.312;2023-08-30T08:03:17;94312.63;;;30.00;38.11
11124;BME280;5616;42.692;23.312;2023-08-30T08:05:44;94312.19;;;30.57;36.62
11124;BME280;5616;42.692;23.312;2023-08-30T08:08:11;94301.38;;;30.74;36.45
11124;BME280;5616;42.692;23.312;2023-08-30T08:10:38;94308.66;;;30.65;37.96
11124;BME280;5616;42.692;23.312;2023-08-30T08:13:05;94310.53;;;30.44;38.12
11124;BME280;5616;42.692;23.312;2023-08-30T08:15:31;94305.94;;;30.73;36.74
11124;BME280;5616;42.692;23.312;2023-08-30T08:18:00;94304.53;;;31.29;36.96
11124;BME280;5616;42.692;23.312;2023-08-30T08:20:28;94299.59;;;31.19;34.53
11124;BME280;5616;42.692;23.312;2023-08-30T08:22:55;94312.06;;;31.27;34.49
11124;BME280;5616;42.692;23.312;2023-08-30T08:25:22;94314.47;;;31.74;34.11
11124;BME280;5616;42.692;23.312;2023-08-30T08:27:49;94315.25;;;31.98;33.33
11124;BME280;5616;42.692;23.312;2023-08-30T08:30:16;94314.03;;;32.32;33.37
11124;BME280;5616;42.692;23.312;2023-08-30T08:32:45;94314.22;;;32.76;31.55
11124;BME280;5616;42.692;23.312;2023-08-30T08:35:14;94312.97;;;32.85;32.35
11124;BME280;5616;42.692;23.312;2023-08-30T08:37:41;94315.31;;;33.27;33.15
11124;BME280;5616;42.692;23.312;2023-08-30T08:40:09;94308.34;;;33.53;32.72
11124;BME280;5616;42.692;23.312;2023-08-30T08:42:36;94307.25;;;33.11;32.71
11124;BME280;5616;42.692;23.312;2023-08-30T08:45:04;94316.22;;;32.79;33.61
11124;BME280;5616;42.692;23.312;2023-08-30T08:47:31;94314.72;;;33.05;32.16
11124;BME280;5616;42.692;23.312;2023-08-30T08:49:59;94308.50;;;33.29;31.26
11124;BME280;5616;42.692;23.312;2023-08-30T08:52:28;94311.09;;;33.84;30.55
11124;BME280;5616;42.692;23.312;2023-08-30T08:54:55;94308.75;;;33.67;30.79
11124;BME280;5616;42.692;23.312;2023-08-30T08:57:22;94304.16;;;33.24;32.87
11124;BME280;5616;42.692;23.312;2023-08-30T08:59:49;94297.81;;;33.17;30.86
11124;BME280;5616;42.692;23.312;2023-08-30T09:02:16;94296.41;;;33.35;30.92
11124;BME280;5616;42.692;23.312;2023-08-30T09:04:43;94301.06;;;33.97;30.84
11124;BME280;5616;42.692;23.312;2023-08-30T09:07:11;94300.03;;;34.02;30.55
11124;BME280;5616;42.692;23.312;2023-08-30T09:09:39;94301.31;;;34.74;29.18
11124;BME280;5616;42.692;23.312;2023-08-30T09:12:06;94291.69;;;35.27;29.36
11124;BME280;5616;42.692;23.312;2023-08-30T09:14:33;94303.13;;;35.24;29.48
11124;BME280;5616;42.692;23.312;2023-08-30T09:17:01;94292.97;;;35.14;28.45
11124;BME280;5616;42.692;23.312;2023-08-30T09:19:29;94293.81;;;34.48;29.50
11124;BME280;5616;42.692;23.312;2023-08-30T09:21:57;94283.38;;;34.08;30.50
11124;BME280;5616;42.692;23.312;2023-08-30T09:24:24;94275.06;;;34.13;30.14
11124;BME280;5616;42.692;23.312;2023-08-30T09:26:54;94278.69;;;33.74;30.41
11124;BME280;5616;42.692;23.312;2023-08-30T09:29:21;94281.28;;;33.43;31.88
11124;BME280;5616;42.692;23.312;2023-08-30T09:31:51;94288.47;;;33.39;32.02
11124;BME280;5616;42.692;23.312;2023-08-30T09:34:22;94286.84;;;33.34;32.05
11124;BME280;5616;42.692;23.312;2023-08-30T09:36:49;94284.38;;;33.13;31.74
11124;BME280;5616;42.692;23.312;2023-08-30T09:39:16;94280.06;;;32.97;33.10
11124;BME280;5616;42.692;23.312;2023-08-30T09:41:43;94284.53;;;32.53;33.18
11124;BME280;5616;42.692;23.312;2023-08-30T09:44:12;94281.41;;;31.90;34.82
11124;BME280;5616;42.692;23.312;2023-08-30T09:46:41;94279.53;;;31.34;35.37
11124;BME280;5616;42.692;23.312;2023-08-30T09:49:12;94278.31;;;30.37;37.35
11124;BME280;5616;42.692;23.312;2023-08-30T09:51:42;94280.53;;;30.55;36.61
11124;BME280;5616;42.692;23.312;2023-08-30T09:54:13;94269.28;;;30.50;36.93
11124;BME280;5616;42.692;23.312;2023-08-30T09:56:41;94262.91;;;30.63;36.38
11124;BME280;5616;42.692;23.312;2023-08-30T09:59:09;94256.53;;;30.55;36.93
11124;BME280;5616;42.692;23.312;2023-08-30T10:01:38;94264.16;;;30.65;37.11
11124;BME280;5616;42.692;23.312;2023-08-30T10:04:06;94263.88;;;30.79;38.29
11124;BME280;5616;42.692;23.312;2023-08-30T10:06:35;94267.78;;;31.02;37.78
11124;BME280;5616;42.692;23.312;2023-08-30T10:09:03;94264.19;;;30.98;36.42
11124;BME280;5616;42.692;23.312;2023-08-30T10:11:32;94261.28;;;30.91;36.06
11124;BME280;5616;42.692;23.312;2023-08-30T10:14:00;94264.53;;;30.76;36.04
11124;BME280;5616;42.692;23.312;2023-08-30T10:16:30;94257.38;;;30.68;35.94
11124;BME280;5616;42.692;23.312;2023-08-30T10:19:02;94250.66;;;30.82;37.23
11124;BME280;5616;42.692;23.312;2023-08-30T10:21:31;94255.13;;;30.90;37.12
11124;BME280;5616;42.692;23.312;2023-08-30T10:23:58;94239.03;;;30.87;36.15
11124;BME280;5616;42.692;23.312;2023-08-30T10:26:28;94240.16;;;30.45;36.67
11124;BME280;5616;42.692;23.312;2023-08-30T10:28:57;94240.47;;;30.43;37.01
11124;BME280;5616;42.692;23.312;2023-08-30T10:31:27;94242.16;;;30.48;37.21
11124;BME280;5616;42.692;23.312;2023-08-30T10:33:55;94240.69;;;30.38;37.32
11124;BME280;5616;42.692;23.312;2023-08-30T10:36:24;94246.94;;;30.13;37.78
11124;BME280;5616;42.692;23.312;2023-08-30T10:38:51;94244.56;;;29.91;39.23
11124;BME280;5616;42.692;23.312;2023-08-30T10:41:23;94231.38;;;29.94;40.55
11124;BME280;5616;42.692;23.312;2023-08-30T10:43:51;94231.09;;;29.87;39.00
11124;BME280;5616;42.692;23.312;2023-08-30T10:46:29;94236.25;;;29.92;40.08
11124;BME280;5616;42.692;23.312;2023-08-30T10:49:08;94229.97;;;29.97;38.50
11124;BME280;5616;42.692;23.312;2023-08-30T10:51:38;94224.31;;;29.98;39.85
11124;BME280;5616;42.692;23.312;2023-08-30T10:54:12;94229.78;;;30.02;39.36
11124;BME280;5616;42.692;23.312;2023-08-30T10:56:46;94223.09;;;30.16;37.79
11124;BME280;5616;42.692;23.312;2023-08-30T10:59:17;94226.13;;;30.36;37.50
11124;BME280;5616;42.692;23.312;2023-08-30T11:01:45;94221.22;;;30.58;35.99
11124;BME280;5616;42.692;23.312;2023-08-30T11:04:14;94219.88;;;30.85;35.62
11124;BME280;5616;42.692;23.312;2023-08-30T11:06:44;94213.09;;;31.08;35.63
11124;BME280;5616;42.692;23.312;2023-08-30T11:09:16;94222.22;;;31.07;35.79
11124;BME280;5616;42.692;23.312;2023-08-30T11:11:44;94219.63;;;31.31;36.21
11124;BME280;5616;42.692;23.312;2023-08-30T11:14:12;94216.16;;;31.31;33.76
11124;BME280;5616;42.692;23.312;2023-08-30T11:16:39;94218.75;;;31.39;31.87
11124;BME280;5616;42.692;23.312;2023-08-30T11:19:07;94216.59;;;31.33;33.16
11124;BME280;5616;42.692;23.312;2023-08-30T11:21:36;94211.16;;;31.41;32.61
11124;BME280;5616;42.692;23.312;2023-08-30T11:24:05;94209.31;;;31.66;32.26
11124;BME280;5616;42.692;23.312;2023-08-30T11:26:33;94202.63;;;31.72;30.55
11124;BME280;5616;42.692;23.312;2023-08-30T11:29:04;94188.88;;;31.58;28.30
11124;BME280;5616;42.692;23.312;2023-08-30T11:31:31;94191.56;;;31.25;29.23
11124;BME280;5616;42.692;23.312;2023-08-30T11:33:58;94188.03;;;31.33;29.15
11124;BME280;5616;42.692;23.312;2023-08-30T11:36:26;94193.59;;;31.40;30.23
11124;BME280;5616;42.692;23.312;2023-08-30T11:38:54;94175.22;;;31.27;30.42
11124;BME280;5616;42.692;23.312;2023-08-30T11:41:23;94178.25;;;31.25;30.13
11124;BME280;5616;42.692;23.312;2023-08-30T11:43:51;94169.88;;;31.15;28.75
11124;BME280;5616;42.692;23.312;2023-08-30T11:46:18;94178.91;;;31.22;29.38
11124;BME280;5616;42.692;23.312;2023-08-30T11:48:46;94172.69;;;31.30;29.70
11124;BME280;5616;42.692;23.312;2023-08-30T11:51:14;94172.50;;;31.48;28.66
11124;BME280;5616;42.692;23.312;2023-08-30T11:53:41;94163.56;;;31.43;27.64
11124;BME280;5616;42.692;23.312;2023-08-30T11:56:08;94165.13;;;31.20;28.95
11124;BME280;5616;42.692;23.312;2023-08-30T11:58:37;94165.34;;;31.15;28.52
11124;BME280;5616;42.692;23.312;2023-08-30T12:01:04;94164.13;;;31.13;29.17
11124;BME280;5616;42.692;23.312;2023-08-30T12:03:31;94164.00;;;31.09;30.40
11124;BME280;5616;42.692;23.312;2023-08-30T12:05:59;94163.41;;;31.04;27.75
11124;BME280;5616;42.692;23.312;2023-08-30T12:08:28;94160.84;;;30.95;28.59
11124;BME280;5616;42.692;23.312;2023-08-30T12:10:56;94133.56;;;30.77;29.16
11124;BME280;5616;42.692;23.312;2023-08-30T12:13:23;94160.66;;;30.79;28.66
11124;BME280;5616;42.692;23.312;2023-08-30T12:15:52;94145.13;;;30.81;28.23
11124;BME280;5616;42.692;23.312;2023-08-30T12:18:21;94150.13;;;30.83;28.23
11124;BME280;5616;42.692;23.312;2023-08-30T12:20:52;94147.47;;;30.83;28.28
11124;BME280;5616;42.692;23.312;2023-08-30T12:23:20;94147.50;;;30.95;29.16
11124;BME280;5616;42.692;23.312;2023-08-30T12:25:57;94145.53;;;31.16;29.75
11124;BME280;5616;42.692;23.312;2023-08-30T12:28:24;94152.91;;;31.43;28.42
11124;BME280;5616;42.692;23.312;2023-08-30T12:30:53;94125.00;;;31.41;26.69
11124;BME280;5616;42.692;23.312;2023-08-30T12:33:20;94138.91;;;31.59;27.42
11124;BME280;5616;42.692;23.312;2023-08-30T12:35:47;94131.44;;;31.64;26.26
11124;BME280;5616;42.692;23.312;2023-08-30T12:38:14;94131.34;;;31.48;27.89
11124;BME280;5616;42.692;23.312;2023-08-30T12:40:44;94132.00;;;31.33;26.98
11124;BME280;5616;42.692;23.312;2023-08-30T12:43:11;94134.91;;;31.28;26.78
11124;BME280;5616;42.692;23.312;2023-08-30T12:45:39;94118.88;;;31.28;25.22
11124;BME280;5616;42.692;23.312;2023-08-30T12:48:08;94114.53;;;31.36;26.80
11124;BME280;5616;42.692;23.312;2023-08-30T12:50:35;94115.03;;;31.50;26.51
11124;BME280;5616;42.692;23.312;2023-08-30T12:53:03;94112.22;;;31.71;25.75
11124;BME280;5616;42.692;23.312;2023-08-30T12:55:30;94113.97;;;31.79;24.67
11124;BME280;5616;42.692;23.312;2023-08-30T12:57:57;94109.53;;;31.71;24.53
11124;BME280;5616;42.692;23.312;2023-08-30T13:00:24;94107.75;;;31.75;24.63
11124;BME280;5616;42.692;23.312;2023-08-30T13:02:51;94108.19;;;31.77;24.82
11124;BME280;5616;42.692;23.312;2023-08-30T13:05:20;94106.38;;;31.93;24.64
11124;BME280;5616;42.692;23.312;2023-08-30T13:07:48;94098.13;;;31.98;25.03